Time;durP1;ratioP1;P1;durP2;ratioP2;P2;SDS_P1;SDS_P2;PMS_P1;PMS_P2;Temp;Humidity;BMP_temperature;BMP_pressure;BME280_temperature;BME280_humidity;BME280_pressure;Samples;Min_cycle;Max_cycle;Signal;HPM_P1;HPM_P2
2021/04/01 00:00:49;;;;;;;;;;;;;;;7.55;63.19;101298.50;1740345;82;20630;-59
2021/04/01 00:03:54;;;;;;;;;;;;;;;7.53;63.23;101303.73;1740309;82;20285;-59
2021/04/01 00:07:01;;;;;;;;;;;;;;;7.49;63.15;101290.87;1740456;82;20304;-57
2021/04/01 00:10:06;;;;;;;;;;;;;;;7.51;63.05;101298.42;1740410;82;20585;-57
2021/04/01 00:13:11;;;;;;;;;;;;;;;7.54;62.96;101298.15;1740278;82;20229;-60
2021/04/01 00:16:19;;;;;;;;;;;;;;;7.53;62.70;101299.13;1740452;82;20284;-60
2021/04/01 00:19:23;;;;;;;;;;;;;;;7.48;62.76;101300.02;1740380;82;20276;-58
2021/04/01 00:22:26;;;;;;;;;;;;;;;7.48;62.83;101294.58;1740486;82;20229;-58
2021/04/01 00:25:33;;;;;;;;;;;;;;;7.49;62.86;101292.23;1740422;82;20256;-58
2021/04/01 00:28:38;;;;;;;;;;;;;;;7.47;62.91;101290.14;1740501;82;20307;-57
2021/04/01 00:31:41;;;;;;;;;;;;;;;7.46;62.77;101288.42;1740379;82;20253;-57
2021/04/01 00:34:46;;;;;;;;;;;;;;;7.45;62.94;101284.47;1740589;82;20240;-57
2021/04/01 00:37:51;;;;;;;;;;;;;;;7.49;63.00;101281.83;1740285;82;20304;-58
2021/04/01 00:40:56;;;;;;;;;;;;;;;7.56;62.90;101280.30;1740293;82;20280;-58
2021/04/01 00:44:02;;;;;;;;;;;;;;;7.59;62.80;101275.95;1740371;82;20308;-58
2021/04/01 00:47:05;;;;;;;;;;;;;;;7.60;62.60;101279.02;1740435;82;20289;-57
2021/04/01 00:50:11;;;;;;;;;;;;;;;7.57;62.62;101272.48;1741995;78;20288;-58
2021/04/01 00:53:15;;;;;;;;;;;;;;;7.58;62.84;101273.70;1742653;82;20332;-58
2021/04/01 00:56:20;;;;;;;;;;;;;;;7.61;62.80;101276.16;1742748;82;20307;-58
2021/04/01 00:59:23;;;;;;;;;;;;;;;7.64;62.62;101270.95;1742646;82;20212;-58
2021/04/01 01:02:28;;;;;;;;;;;;;;;7.68;62.43;101267.44;1742745;82;20285;-58
2021/04/01 01:05:36;;;;;;;;;;;;;;;7.71;62.28;101272.64;1742673;82;20288;-58
2021/04/01 01:08:41;;;;;;;;;;;;;;;7.75;62.17;101263.18;1742726;82;20217;-58
2021/04/01 01:11:46;;;;;;;;;;;;;;;7.79;62.11;101260.53;1742545;82;20264;-57
2021/04/01 01:14:51;;;;;;;;;;;;;;;7.83;62.20;101262.00;1742578;82;20217;-58
2021/04/01 01:17:56;;;;;;;;;;;;;;;7.89;62.11;101261.45;1742691;82;20280;-57
2021/04/01 01:21:02;;;;;;;;;;;;;;;7.95;61.78;101262.25;1742651;82;20220;-58
2021/04/01 01:24:07;;;;;;;;;;;;;;;7.99;61.53;101251.45;1742649;82;20604;-58
2021/04/01 01:27:12;;;;;;;;;;;;;;;8.04;61.63;101251.91;1742648;82;20232;-58
2021/04/01 01:30:19;;;;;;;;;;;;;;;8.10;62.12;101241.80;1742760;82;20292;-58
2021/04/01 01:33:24;;;;;;;;;;;;;;;8.17;62.09;101236.13;1742765;82;20650;-58
2021/04/01 01:36:27;;;;;;;;;;;;;;;8.22;62.21;101240.18;1742728;82;20342;-58
2021/04/01 01:39:32;;;;;;;;;;;;;;;8.24;61.99;101240.95;1742625;82;20312;-59
2021/04/01 01:42:38;;;;;;;;;;;;;;;8.21;61.85;101234.86;1742759;82;20328;-59
2021/04/01 01:45:44;;;;;;;;;;;;;;;8.18;61.83;101244.17;1742687;82;20201;-59
2021/04/01 01:48:51;;;;;;;;;;;;;;;8.15;61.74;101234.91;1742507;82;20252;-58
2021/04/01 01:51:56;;;;;;;;;;;;;;;8.16;61.77;101233.05;1741108;81;20299;-58
2021/04/01 01:55:00;;;;;;;;;;;;;;;8.14;61.74;101232.32;1740363;82;20245;-59
2021/04/01 01:58:07;;;;;;;;;;;;;;;8.13;62.04;101234.70;1740536;82;20327;-59
2021/04/01 02:01:11;;;;;;;;;;;;;;;8.10;62.12;101231.77;1740888;82;20538;-59
2021/04/01 02:04:16;;;;;;;;;;;;;;;8.13;62.05;101231.97;1740219;82;20289;-59
2021/04/01 02:07:21;;;;;;;;;;;;;;;8.19;62.06;101232.77;1740354;82;20284;-60
2021/04/01 02:10:30;;;;;;;;;;;;;;;8.25;61.79;101230.88;1740326;82;20298;-58
2021/04/01 02:13:35;;;;;;;;;;;;;;;8.27;61.81;101229.75;1740272;82;20209;-61
2021/04/01 02:16:41;;;;;;;;;;;;;;;8.29;61.68;101228.25;1740353;82;20224;-61
2021/04/01 02:19:46;;;;;;;;;;;;;;;8.29;61.38;101218.70;1740297;82;20272;-61
2021/04/01 02:22:51;;;;;;;;;;;;;;;8.23;61.46;101215.17;1740398;82;20380;-60
2021/04/01 02:25:56;;;;;;;;;;;;;;;8.25;61.86;101222.69;1740278;82;20297;-58
2021/04/01 02:29:00;;;;;;;;;;;;;;;8.27;61.77;101209.30;1740321;82;20312;-58
2021/04/01 02:32:05;;;;;;;;;;;;;;;8.30;61.52;101206.28;1740409;82;20304;-58
2021/04/01 02:35:11;;;;;;;;;;;;;;;8.33;61.37;101205.12;1740362;82;20221;-58
2021/04/01 02:38:14;;;;;;;;;;;;;;;8.34;61.28;101200.05;1740263;82;20328;-58
2021/04/01 02:41:18;;;;;;;;;;;;;;;8.34;60.92;101194.59;1740290;82;20245;-58
2021/04/01 02:44:24;;;;;;;;;;;;;;;8.32;61.04;101194.73;1740381;82;20339;-58
2021/04/01 02:47:28;;;;;;;;;;;;;;;8.32;60.84;101190.64;1740061;82;20312;-58
2021/04/01 02:50:31;;;;;;;;;;;;;;;8.31;60.72;101190.27;1740168;82;20217;-58
2021/04/01 02:53:36;;;;;;;;;;;;;;;8.31;60.64;101183.97;1741995;80;20241;-58
2021/04/01 02:56:39;;;;;;;;;;;;;;;8.29;60.67;101190.05;1742537;82;20212;-58
2021/04/01 02:59:42;;;;;;;;;;;;;;;8.21;60.67;101183.92;1742579;82;20302;-58
2021/04/01 03:02:53;;;;;;;;;;;;;;;8.16;60.64;101181.23;1742614;82;20648;-55
2021/04/01 03:05:55;;;;;;;;;;;;;;;8.12;60.82;101190.72;1742723;82;20300;-55
2021/04/01 03:08:59;;;;;;;;;;;;;;;8.06;60.81;101188.53;1742720;82;20557;-55
2021/04/01 03:12:02;;;;;;;;;;;;;;;8.02;60.57;101187.09;1742764;82;20565;-55
2021/04/01 03:15:08;;;;;;;;;;;;;;;7.98;60.53;101191.09;1742527;82;20339;-56
2021/04/01 03:18:13;;;;;;;;;;;;;;;7.97;60.46;101179.83;1742689;82;20237;-55
2021/04/01 03:21:17;;;;;;;;;;;;;;;7.96;60.43;101187.66;1742719;82;20771;-55
2021/04/01 03:24:23;;;;;;;;;;;;;;;7.92;60.52;101184.34;1742730;82;20292;-54
2021/04/01 03:27:27;;;;;;;;;;;;;;;7.90;60.54;101174.56;1742695;82;20212;-54
2021/04/01 03:30:30;;;;;;;;;;;;;;;7.89;60.47;101178.30;1742651;82;20280;-54
2021/04/01 03:33:29;;;;;;;;;;;;;;;7.88;60.43;101176.59;1742605;82;20561;-55
2021/04/01 03:36:33;;;;;;;;;;;;;;;7.86;60.55;101173.13;1742561;82;20210;-55
2021/04/01 03:39:36;;;;;;;;;;;;;;;7.82;60.51;101169.81;1742761;82;20664;-55
2021/04/01 03:42:40;;;;;;;;;;;;;;;7.79;60.62;101166.50;1742772;82;20225;-55
2021/04/01 03:45:45;;;;;;;;;;;;;;;7.72;60.70;101170.80;1742689;82;20217;-56
2021/04/01 03:48:48;;;;;;;;;;;;;;;7.68;61.03;101172.06;1742613;82;20324;-55
2021/04/01 03:51:52;;;;;;;;;;;;;;;7.67;61.21;101173.07;1742595;82;20213;-55
2021/04/01 03:55:01;;;;;;;;;;;;;;;7.69;61.15;101172.44;1741341;80;20208;-56
2021/04/01 04:01:59;;;;;;;;;;;;;;;7.75;60.93;101171.39;1742627;82;20213;-56
2021/04/01 04:11:38;;;;;;;;;;;;;;;7.80;60.75;101167.72;1717564;83;20557;-58
2021/04/01 04:14:47;;;;;;;;;;;;;;;7.81;60.88;101168.59;1742628;82;20284;-55
2021/04/01 04:17:45;;;;;;;;;;;;;;;7.83;61.08;101170.69;1742441;82;20236;-55
2021/04/01 04:20:49;;;;;;;;;;;;;;;7.84;61.14;101165.59;1742554;82;20691;-56
2021/04/01 04:23:55;;;;;;;;;;;;;;;7.87;61.00;101164.81;1742556;82;20228;-56
2021/04/01 04:27:05;;;;;;;;;;;;;;;7.91;60.91;101161.31;1771438;80;20313;-56
2021/04/01 04:30:04;;;;;;;;;;;;;;;7.94;60.91;101160.55;1772709;81;20327;-56
2021/04/01 04:33:11;;;;;;;;;;;;;;;7.99;60.91;101163.69;1772909;81;20202;-56
2021/04/01 04:36:15;;;;;;;;;;;;;;;8.04;60.93;101153.75;1772818;81;20382;-56
2021/04/01 04:39:19;;;;;;;;;;;;;;;8.09;60.77;101156.89;1772654;81;20282;-56
2021/04/01 04:42:24;;;;;;;;;;;;;;;8.13;60.74;101156.98;1772853;81;20225;-56
2021/04/01 04:45:28;;;;;;;;;;;;;;;8.18;60.69;101154.17;1773208;81;20226;-56
2021/04/01 04:48:34;;;;;;;;;;;;;;;8.21;60.64;101147.59;1772888;81;20222;-55
2021/04/01 04:51:37;;;;;;;;;;;;;;;8.23;60.66;101155.17;1772970;81;20199;-55
2021/04/01 04:54:42;;;;;;;;;;;;;;;8.27;60.78;101153.87;1772875;80;20282;-55
2021/04/01 05:07:33;;;;;;;;;;;;;;;8.35;60.89;101146.70;1740899;80;20238;-56
2021/04/01 05:10:38;;;;;;;;;;;;;;;8.39;60.91;101147.25;1717576;83;20249;-52
2021/04/01 05:13:43;;;;;;;;;;;;;;;8.42;60.89;101142.91;1717857;83;20222;-52
2021/04/01 05:16:47;;;;;;;;;;;;;;;8.46;60.99;101139.74;1717942;83;22141;-52
2021/04/01 05:19:56;;;;;;;;;;;;;;;8.53;61.00;101138.67;1717529;83;20216;-52
2021/04/01 05:23:03;;;;;;;;;;;;;;;8.60;61.08;101135.20;1718581;83;20222;-53
2021/04/01 05:29:21;;;;;;;;;;;;;;;8.77;61.24;101124.91;1717504;83;20203;-52
2021/04/01 05:32:25;;;;;;;;;;;;;;;8.87;61.37;101126.25;1717579;83;20299;-52
2021/04/01 05:35:30;;;;;;;;;;;;;;;8.99;61.53;101122.36;1717519;83;20210;-52
2021/04/01 05:38:34;;;;;;;;;;;;;;;9.09;61.53;101123.17;1718345;83;20558;-55
2021/04/01 05:41:39;;;;;;;;;;;;;;;9.18;61.51;101120.91;1676463;85;20254;-53
2021/04/01 05:44:49;;;;;;;;;;;;;;;9.29;61.42;101120.75;1659634;85;20470;-53
2021/04/01 05:47:57;;;;;;;;;;;;;;;9.42;61.50;101117.16;1676105;85;20287;-54
2021/04/01 05:58:01;;;;;;;;;;;;;;;10.04;61.30;101105.42;1700652;82;20554;-52
2021/04/01 06:04:32;;;;;;;;;;;;;;;10.47;60.62;101098.20;1754465;81;20303;-52
2021/04/01 06:07:34;;;;;;;;;;;;;;;10.67;59.99;101087.08;1750223;82;20568;-54
2021/04/01 06:10:40;;;;;;;;;;;;;;;10.86;59.36;101086.88;1749778;82;20325;-53
2021/04/01 06:14:02;;;;;;;;;;;;;;;11.02;58.61;101085.62;1758771;80;20888;-53
2021/04/01 06:16:56;;;;;;;;;;;;;;;11.18;58.21;101082.98;1747386;81;20602;-53
2021/04/01 06:20:04;;;;;;;;;;;;;;;11.36;58.25;101079.13;1748862;81;20291;-53
2021/04/01 06:23:08;;;;;;;;;;;;;;;11.57;57.65;101078.20;1748725;81;20207;-52
2021/04/01 06:26:23;;;;;;;;;;;;;;;11.80;57.08;101075.72;1720202;83;20209;-57
2021/04/01 06:29:28;;;;;;;;;;;;;;;11.98;56.47;101076.47;1720344;83;20233;-52
2021/04/01 06:32:36;;;;;;;;;;;;;;;12.15;55.69;101080.95;1725844;83;20609;-54
2021/04/01 06:35:41;;;;;;;;;;;;;;;12.28;55.10;101080.46;1742647;81;20223;-52
2021/04/01 06:38:47;;;;;;;;;;;;;;;12.38;54.72;101075.17;1726659;80;20617;-53
2021/04/01 06:41:52;;;;;;;;;;;;;;;12.46;54.49;101079.30;1763835;80;20279;-53
2021/04/01 06:45:01;;;;;;;;;;;;;;;12.51;53.96;101071.37;1771591;80;20582;-53
2021/04/01 06:48:05;;;;;;;;;;;;;;;12.52;53.73;101070.37;1740110;80;20194;-53
2021/04/01 06:51:12;;;;;;;;;;;;;;;12.52;53.36;101064.00;1777033;80;20610;-54
2021/04/01 06:54:26;;;;;;;;;;;;;;;12.55;53.29;101063.66;1732635;81;20610;-53
2021/04/01 07:00:58;;;;;;;;;;;;;;;12.64;52.65;101061.24;1698618;83;20584;-55
2021/04/01 07:04:02;;;;;;;;;;;;;;;12.64;51.90;101060.73;1741526;82;20211;-54
2021/04/01 07:07:18;;;;;;;;;;;;;;;12.67;50.93;101058.18;1746674;81;20211;-54
2021/04/01 07:13:47;;;;;;;;;;;;;;;12.77;49.95;101054.71;1717409;83;20259;-53
2021/04/01 07:23:46;;;;;;;;;;;;;;;12.93;48.68;101044.57;1741409;82;20221;-53
2021/04/01 07:46:57;;;;;;;;;;;;;;;13.47;46.48;101021.74;1739691;81;20290;-54
2021/04/01 07:50:01;;;;;;;;;;;;;;;13.56;45.10;101021.70;1743857;81;20211;-53
2021/04/01 07:53:04;;;;;;;;;;;;;;;13.65;44.47;101016.49;1746852;82;20220;-54
2021/04/01 07:56:17;;;;;;;;;;;;;;;13.75;43.38;101014.38;1717366;83;20221;-54
2021/04/01 08:05:56;;;;;;;;;;;;;;;14.02;42.54;100997.31;1752416;81;20199;-53
2021/04/01 08:09:07;;;;;;;;;;;;;;;14.11;42.66;100998.45;1766430;81;20342;-54
2021/04/01 08:12:11;;;;;;;;;;;;;;;14.18;42.23;100991.69;1734096;82;20251;-53
2021/04/01 08:15:24;;;;;;;;;;;;;;;14.22;41.73;100986.17;1726603;82;20207;-52
2021/04/01 08:18:29;;;;;;;;;;;;;;;14.26;41.85;100984.27;1734841;81;20220;-54
2021/04/01 08:21:31;;;;;;;;;;;;;;;14.30;42.37;100972.36;1755769;81;20699;-54
2021/04/01 08:24:39;;;;;;;;;;;;;;;14.36;42.11;100975.75;1753044;81;20280;-54
2021/04/01 08:27:56;;;;;;;;;;;;;;;14.41;41.64;100963.66;1751467;81;20224;-52
2021/04/01 08:37:39;;;;;;;;;;;;;;;14.55;41.62;100950.42;1750702;81;20211;-53
2021/04/01 08:40:48;;;;;;;;;;;;;;;14.65;41.79;100941.38;1755504;80;20246;-53
2021/04/01 08:44:03;;;;;;;;;;;;;;;14.70;40.75;100939.75;1755432;81;20271;-52
2021/04/01 08:47:31;;;;;;;;;;;;;;;14.77;39.65;100937.09;1751741;81;20214;-52
2021/04/01 08:50:51;;;;;;;;;;;;;;;14.79;39.59;100934.47;1781505;80;20305;-52
2021/04/01 08:54:10;;;;;;;;;;;;;;;14.84;39.19;100931.17;1753269;80;20285;-52
2021/04/01 08:57:24;;;;;;;;;;;;;;;14.87;39.04;100925.28;1750603;82;20217;-56
2021/04/01 09:00:28;;;;;;;;;;;;;;;14.89;39.11;100914.89;1755074;80;20224;-56
2021/04/01 09:03:38;;;;;;;;;;;;;;;14.95;39.28;100916.91;1755400;81;20239;-56
2021/04/01 09:06:47;;;;;;;;;;;;;;;15.02;39.43;100916.45;1749668;81;20427;-55
2021/04/01 09:09:53;;;;;;;;;;;;;;;15.11;39.31;100904.27;1720016;83;20217;-55
2021/04/01 09:16:12;;;;;;;;;;;;;;;15.26;40.93;100898.73;1751776;80;20667;-53
2021/04/01 09:19:14;;;;;;;;;;;;;;;15.35;40.47;100888.77;1753816;81;20239;-54
2021/04/01 09:22:30;;;;;;;;;;;;;;;15.45;41.19;100892.11;1753773;81;20279;-53
2021/04/01 09:25:49;;;;;;;;;;;;;;;15.54;39.89;100878.52;1771991;81;20235;-54
2021/04/01 09:28:55;;;;;;;;;;;;;;;15.58;39.01;100881.74;1777385;80;20207;-54
2021/04/01 09:32:06;;;;;;;;;;;;;;;15.62;39.10;100872.87;1729427;80;20217;-54
2021/04/01 09:35:13;;;;;;;;;;;;;;;15.70;39.23;100869.11;1758793;81;20360;-54
2021/04/01 09:38:17;;;;;;;;;;;;;;;15.74;38.12;100864.41;1770454;80;20214;-54
2021/04/01 09:41:40;;;;;;;;;;;;;;;15.80;38.47;100860.86;1753819;81;20635;-54
2021/04/01 09:45:01;;;;;;;;;;;;;;;15.90;38.07;100861.90;1751656;81;20203;-54
2021/04/01 09:48:07;;;;;;;;;;;;;;;15.97;37.74;100853.99;1763082;80;20210;-54
2021/04/01 09:51:25;;;;;;;;;;;;;;;16.05;37.73;100848.84;1787441;79;20218;-53
2021/04/01 09:54:30;;;;;;;;;;;;;;;16.17;37.54;100847.27;1787343;80;20249;-52
2021/04/01 09:57:37;;;;;;;;;;;;;;;16.23;37.32;100848.70;1787102;80;20241;-52
2021/04/01 10:01:02;;;;;;;;;;;;;;;16.29;36.99;100834.08;1773305;78;20199;-53
2021/04/01 10:04:07;;;;;;;;;;;;;;;16.31;37.24;100829.20;1754296;81;20276;-54
2021/04/01 10:07:21;;;;;;;;;;;;;;;16.37;36.99;100824.25;1719985;83;20205;-54
2021/04/01 10:10:29;;;;;;;;;;;;;;;16.42;37.21;100831.41;1725212;82;20225;-54
2021/04/01 10:13:35;;;;;;;;;;;;;;;16.53;37.15;100827.77;1726450;82;20216;-53
2021/04/01 10:16:38;;;;;;;;;;;;;;;16.63;36.68;100824.11;1745497;82;20208;-54
2021/04/01 10:19:48;;;;;;;;;;;;;;;16.67;36.35;100817.09;1745374;82;20308;-54
2021/04/01 10:22:54;;;;;;;;;;;;;;;16.75;36.47;100821.94;1745780;81;20328;-54
2021/04/01 10:25:58;;;;;;;;;;;;;;;16.86;36.01;100813.58;1720833;83;20217;-54
2021/04/01 10:29:15;;;;;;;;;;;;;;;16.91;35.78;100809.67;1725884;83;20677;-56
2021/04/01 10:32:17;;;;;;;;;;;;;;;16.94;35.97;100796.81;1721847;83;20678;-56
2021/04/01 10:35:28;;;;;;;;;;;;;;;17.08;36.54;100793.03;1725859;83;20617;-56
2021/04/01 10:38:36;;;;;;;;;;;;;;;17.25;35.86;100792.44;1765590;81;20580;-57
2021/04/01 10:41:42;;;;;;;;;;;;;;;17.30;34.99;100793.22;1720512;83;20221;-55
2021/04/01 10:44:47;;;;;;;;;;;;;;;17.31;34.73;100781.94;1736896;80;20219;-55
2021/04/01 10:48:13;;;;;;;;;;;;;;;17.40;35.02;100781.19;1775312;80;20290;-55
2021/04/01 10:51:17;;;;;;;;;;;;;;;17.52;34.42;100771.25;1755665;82;20287;-56
2021/04/01 10:54:21;;;;;;;;;;;;;;;17.64;34.02;100759.86;1746124;81;20349;-55
2021/04/01 10:57:39;;;;;;;;;;;;;;;17.69;33.62;100754.02;1720784;83;20493;-56
2021/04/01 11:00:42;;;;;;;;;;;;;;;17.77;33.28;100745.47;1732825;80;20254;-56
2021/04/01 11:03:53;;;;;;;;;;;;;;;17.92;33.29;100741.09;1740495;81;20222;-55
2021/04/01 11:07:00;;;;;;;;;;;;;;;18.08;32.97;100749.48;1766564;80;20210;-55
2021/04/01 11:10:05;;;;;;;;;;;;;;;18.12;32.71;100741.94;1772787;80;20345;-55
2021/04/01 11:13:26;;;;;;;;;;;;;;;18.14;32.14;100736.19;1773233;80;20559;-55
2021/04/01 11:16:32;;;;;;;;;;;;;;;18.21;32.42;100735.09;1772640;81;20317;-55
2021/04/01 11:19:36;;;;;;;;;;;;;;;18.28;31.92;100729.02;1694763;83;20260;-55
2021/04/01 11:22:40;;;;;;;;;;;;;;;18.35;32.08;100723.42;1718584;83;20325;-56
2021/04/01 11:25:46;;;;;;;;;;;;;;;18.41;32.27;100716.50;1717319;83;20571;-56
2021/04/01 11:28:54;;;;;;;;;;;;;;;18.61;31.68;100706.20;1746772;81;20572;-57
2021/04/01 11:31:57;;;;;;;;;;;;;;;18.83;31.56;100706.20;1746573;81;20203;-57
2021/04/01 11:35:06;;;;;;;;;;;;;;;19.00;31.32;100706.00;1717750;83;20229;-55
2021/04/01 11:38:12;;;;;;;;;;;;;;;19.12;30.80;100704.76;1717661;83;20233;-56
2021/04/01 11:41:17;;;;;;;;;;;;;;;19.17;30.97;100698.00;1717929;83;20221;-56
2021/04/01 11:44:26;;;;;;;;;;;;;;;19.22;30.88;100685.14;1731743;82;20334;-56
2021/04/01 11:47:33;;;;;;;;;;;;;;;19.38;31.16;100682.94;1742974;82;20225;-57
2021/04/01 11:50:38;;;;;;;;;;;;;;;19.48;30.55;100669.38;1738589;82;20238;-56
2021/04/01 11:53:43;;;;;;;;;;;;;;;19.65;30.97;100669.11;1733364;82;20592;-57
2021/04/01 11:56:51;;;;;;;;;;;;;;;19.77;29.94;100663.13;1746282;82;20619;-56
2021/04/01 12:00:08;;;;;;;;;;;;;;;19.85;29.29;100655.89;1746733;82;20588;-56
2021/04/01 12:03:14;;;;;;;;;;;;;;;19.86;29.23;100654.28;1713154;82;20216;-60
2021/04/01 12:06:19;;;;;;;;;;;;;;;19.95;29.88;100649.25;1738277;80;20239;-58
2021/04/01 12:09:24;;;;;;;;;;;;;;;19.97;29.21;100634.59;1729240;82;20263;-57
2021/04/01 12:12:39;;;;;;;;;;;;;;;19.99;28.74;100638.00;1744400;82;20568;-57
2021/04/01 12:15:46;;;;;;;;;;;;;;;19.98;28.31;100632.14;1745062;82;20203;-56
2021/04/01 12:18:52;;;;;;;;;;;;;;;20.08;28.16;100628.27;1744093;82;20608;-56
2021/04/01 12:21:58;;;;;;;;;;;;;;;20.14;28.04;100617.63;1738956;82;20256;-56
2021/04/01 12:25:04;;;;;;;;;;;;;;;20.20;27.56;100609.78;1740318;82;20221;-56
2021/04/01 12:28:09;;;;;;;;;;;;;;;20.23;27.52;100607.36;1740303;82;20289;-55
2021/04/01 12:31:18;;;;;;;;;;;;;;;20.34;27.48;100605.74;1739971;82;20633;-54
2021/04/01 12:34:36;;;;;;;;;;;;;;;20.45;27.12;100601.64;1740256;82;20581;-54
2021/04/01 12:37:39;;;;;;;;;;;;;;;20.60;27.34;100600.66;1740370;82;20221;-55
2021/04/01 12:40:46;;;;;;;;;;;;;;;20.74;27.43;100590.17;1740147;82;20273;-55
2021/04/01 12:43:52;;;;;;;;;;;;;;;20.88;26.60;100589.45;1740003;82;20216;-55
2021/04/01 12:46:56;;;;;;;;;;;;;;;20.81;26.32;100586.77;1740091;82;20289;-54
2021/04/01 12:50:00;;;;;;;;;;;;;;;20.71;26.26;100572.56;1740443;82;20284;-54
2021/04/01 12:53:07;;;;;;;;;;;;;;;20.70;26.29;100568.95;1734950;80;20310;-54
2021/04/01 12:56:22;;;;;;;;;;;;;;;20.68;26.33;100561.91;1751893;81;20218;-54
2021/04/01 12:59:24;;;;;;;;;;;;;;;20.72;26.54;100561.77;1745250;82;20308;-54
2021/04/01 13:02:30;;;;;;;;;;;;;;;20.72;26.33;100555.63;1743791;79;20215;-55
2021/04/01 13:05:38;;;;;;;;;;;;;;;20.67;26.78;100547.71;1698862;83;20242;-55
2021/04/01 13:11:57;;;;;;;;;;;;;;;20.73;27.07;100536.48;1710209;82;20196;-53
2021/04/01 13:15:01;;;;;;;;;;;;;;;20.78;27.36;100531.59;1671202;83;20247;-54
2021/04/01 13:18:06;;;;;;;;;;;;;;;20.81;27.02;100533.89;1666283;86;20223;-55
2021/04/01 13:21:31;;;;;;;;;;;;;;;20.78;27.03;100528.80;1671765;85;20218;-55
2021/04/01 13:27:31;;;;;;;;;;;;;;;20.80;26.83;100511.33;1673494;84;20218;-53
2021/04/01 13:30:37;;;;;;;;;;;;;;;20.69;26.65;100517.72;1641515;86;20237;-53
2021/04/01 13:33:50;;;;;;;;;;;;;;;20.66;27.53;100515.42;1667456;85;20220;-54
2021/04/01 13:40:10;;;;;;;;;;;;;;;20.74;27.58;100499.20;1660136;84;20217;-54
2021/04/01 13:43:08;;;;;;;;;;;;;;;20.79;27.29;100494.31;1660274;84;20266;-54
2021/04/01 13:46:12;;;;;;;;;;;;;;;20.83;27.39;100488.59;1657223;84;20254;-55
2021/04/01 13:49:27;;;;;;;;;;;;;;;20.83;27.87;100489.98;1629670;88;20212;-54
2021/04/01 13:55:45;;;;;;;;;;;;;;;20.74;27.55;100474.70;1700857;84;20235;-54
2021/04/01 13:59:01;;;;;;;;;;;;;;;20.76;27.84;100475.31;1699976;84;20304;-55
2021/04/01 14:09:09;;;;;;;;;;;;;;;20.59;27.75;100457.09;1749163;82;20199;-54
2021/04/01 14:12:05;;;;;;;;;;;;;;;20.65;28.02;100459.45;1752970;82;20544;-54
2021/04/01 14:15:10;;;;;;;;;;;;;;;20.72;27.54;100451.86;1753366;82;20305;-56
2021/04/01 14:18:15;;;;;;;;;;;;;;;20.80;27.46;100448.72;1753252;81;20304;-54
2021/04/01 14:21:22;;;;;;;;;;;;;;;20.80;27.22;100440.37;1753346;81;20203;-55
2021/04/01 14:24:29;;;;;;;;;;;;;;;20.74;27.04;100446.34;1754751;81;20243;-55
2021/04/01 14:27:40;;;;;;;;;;;;;;;20.75;27.15;100443.02;1717364;83;20834;-56
2021/04/01 14:30:39;;;;;;;;;;;;;;;20.77;27.23;100446.42;1736996;81;20213;-54
2021/04/01 14:33:47;;;;;;;;;;;;;;;20.81;27.13;100442.05;1746074;81;20556;-55
2021/04/01 14:36:51;;;;;;;;;;;;;;;20.68;27.40;100440.88;1761403;81;20588;-55
2021/04/01 14:40:00;;;;;;;;;;;;;;;20.45;28.09;100437.55;1776596;81;20212;-57
2021/04/01 14:43:25;;;;;;;;;;;;;;;20.43;28.33;100438.31;1868334;76;20175;-55
2021/04/01 14:46:24;;;;;;;;;;;;;;;20.53;28.19;100435.78;1797960;79;20480;-56
2021/04/01 14:49:29;;;;;;;;;;;;;;;20.46;28.18;100425.32;1785223;79;20201;-57
2021/04/01 14:52:33;;;;;;;;;;;;;;;20.27;28.48;100431.19;1807010;79;20221;-57
2021/04/01 14:55:36;;;;;;;;;;;;;;;20.07;29.10;100431.48;1806965;79;20201;-58
2021/04/01 14:58:41;;;;;;;;;;;;;;;19.91;29.42;100433.52;1803944;79;20255;-57
2021/04/01 15:01:48;;;;;;;;;;;;;;;19.93;29.58;100428.55;1772310;81;20225;-57
2021/04/01 15:04:54;;;;;;;;;;;;;;;20.22;29.23;100426.34;1785434;79;20554;-57
2021/04/01 15:07:58;;;;;;;;;;;;;;;20.50;28.71;100428.48;1795614;79;20197;-57
2021/04/01 15:11:04;;;;;;;;;;;;;;;20.62;28.46;100423.77;1796629;79;20213;-57
2021/04/01 15:14:08;;;;;;;;;;;;;;;20.66;28.60;100427.78;1805681;79;20209;-57
2021/04/01 15:17:12;;;;;;;;;;;;;;;20.55;28.25;100430.00;1797006;79;20641;-56
2021/04/01 15:20:18;;;;;;;;;;;;;;;20.44;28.36;100418.28;1789598;79;20890;-56
2021/04/01 15:23:21;;;;;;;;;;;;;;;20.43;28.84;100418.84;1805545;79;20243;-56
2021/04/01 15:26:25;;;;;;;;;;;;;;;20.44;29.29;100419.14;1806339;79;20512;-57
2021/04/01 15:29:29;;;;;;;;;;;;;;;20.22;28.57;100421.31;1793575;79;20483;-56
2021/04/01 15:32:34;;;;;;;;;;;;;;;19.97;28.91;100415.90;1794312;79;20198;-57
2021/04/01 15:35:40;;;;;;;;;;;;;;;19.74;29.17;100408.01;1798833;79;20687;-56
2021/04/01 15:38:45;;;;;;;;;;;;;;;19.54;29.61;100416.59;1773004;79;20286;-56
2021/04/01 15:41:49;;;;;;;;;;;;;;;19.31;29.92;100408.14;1780733;79;20306;-56
2021/04/01 15:44:54;;;;;;;;;;;;;;;19.02;30.78;100412.48;1770140;81;20318;-56
2021/04/01 15:47:58;;;;;;;;;;;;;;;18.80;31.07;100411.23;1748790;81;20607;-56
2021/04/01 15:51:01;;;;;;;;;;;;;;;18.60;31.45;100409.72;1739594;82;20649;-56
2021/04/01 15:54:04;;;;;;;;;;;;;;;18.39;31.99;100408.72;1739579;82;20582;-56
2021/04/01 15:57:09;;;;;;;;;;;;;;;18.16;32.27;100401.48;1739498;82;20213;-56
2021/04/01 16:00:14;;;;;;;;;;;;;;;17.91;32.58;100409.77;1739561;82;20257;-56
2021/04/01 16:03:17;;;;;;;;;;;;;;;17.64;32.98;100406.84;1739049;82;20206;-56
2021/04/01 16:06:21;;;;;;;;;;;;;;;17.37;33.69;100399.17;1739291;82;20221;-57
2021/04/01 16:09:26;;;;;;;;;;;;;;;17.10;34.39;100395.31;1743114;81;20234;-56
2021/04/01 16:12:34;;;;;;;;;;;;;;;16.84;34.83;100400.94;1759489;81;20292;-55
2021/04/01 16:15:38;;;;;;;;;;;;;;;16.60;35.41;100393.31;1757163;81;20216;-57
2021/04/01 16:18:42;;;;;;;;;;;;;;;16.37;36.24;100397.33;1760792;81;20208;-57
2021/04/01 16:21:47;;;;;;;;;;;;;;;16.13;36.71;100394.33;1762206;81;20262;-57
2021/04/01 16:24:53;;;;;;;;;;;;;;;15.93;37.12;100395.71;1769176;81;20195;-58
2021/04/01 16:27:56;;;;;;;;;;;;;;;15.75;37.54;100400.97;1749733;81;20231;-56
2021/04/01 16:31:03;;;;;;;;;;;;;;;15.58;38.08;100387.24;1764043;81;20220;-56
2021/04/01 16:34:08;;;;;;;;;;;;;;;15.41;38.56;100386.44;1769647;81;20211;-56
2021/04/01 16:37:12;;;;;;;;;;;;;;;15.21;38.65;100397.34;1769493;81;20219;-56
2021/04/01 16:40:18;;;;;;;;;;;;;;;15.03;39.27;100394.31;1757393;81;20245;-56
2021/04/01 16:43:26;;;;;;;;;;;;;;;14.88;39.79;100393.58;1769290;78;20208;-56
2021/04/01 16:46:31;;;;;;;;;;;;;;;14.72;40.02;100389.25;1754641;81;20216;-56
2021/04/01 16:49:36;;;;;;;;;;;;;;;14.57;40.21;100386.28;1750658;81;20212;-56
2021/04/01 16:52:40;;;;;;;;;;;;;;;14.42;40.23;100391.89;1757143;81;20548;-56
2021/04/01 16:55:45;;;;;;;;;;;;;;;14.30;40.71;100393.47;1756932;81;20244;-56
2021/04/01 16:58:48;;;;;;;;;;;;;;;14.17;41.36;100389.74;1757451;81;20212;-56
2021/04/01 17:01:56;;;;;;;;;;;;;;;14.05;41.55;100394.09;1749863;81;20287;-56
2021/04/01 17:04:59;;;;;;;;;;;;;;;13.93;42.13;100398.41;1735856;81;20710;-57
2021/04/01 17:08:05;;;;;;;;;;;;;;;13.79;42.14;100397.44;1740484;82;20216;-57
2021/04/01 17:11:10;;;;;;;;;;;;;;;13.68;42.50;100394.34;1750681;81;20631;-57
2021/04/01 17:14:16;;;;;;;;;;;;;;;13.54;42.73;100390.06;1750996;81;20208;-56
2021/04/01 17:17:20;;;;;;;;;;;;;;;13.43;42.99;100389.72;1754729;81;20206;-56
2021/04/01 17:20:30;;;;;;;;;;;;;;;13.33;42.90;100387.81;1757600;81;20353;-56
2021/04/01 17:23:35;;;;;;;;;;;;;;;13.24;43.00;100391.19;1748084;81;20228;-57
2021/04/01 17:26:41;;;;;;;;;;;;;;;13.15;43.27;100386.86;1754875;81;20207;-56
2021/04/01 17:29:46;;;;;;;;;;;;;;;13.07;43.55;100389.71;1736957;81;20223;-56
2021/04/01 17:32:51;;;;;;;;;;;;;;;12.99;43.50;100385.66;1733017;81;20564;-56
2021/04/01 17:35:56;;;;;;;;;;;;;;;12.89;43.61;100382.34;1752792;81;20251;-56
2021/04/01 17:39:01;;;;;;;;;;;;;;;12.80;44.81;100383.49;1762915;81;20311;-56
2021/04/01 17:42:08;;;;;;;;;;;;;;;12.73;44.29;100380.33;1744026;81;20253;-56
2021/04/01 17:45:12;;;;;;;;;;;;;;;12.64;44.27;100378.19;1772263;78;20573;-56